Time;durP1;ratioP1;P1;durP2;ratioP2;P2;SDS_P1;SDS_P2;PMS_P1;PMS_P2;Temp;Humidity;BMP_temperature;BMP_pressure;BME280_temperature;BME280_humidity;BME280_pressure;Samples;Min_cycle;Max_cycle;Signal;HPM_P1;HPM_P2
2021/11/07 00:06:38;;;;;;;3.85;2.42;;;;;;;8.18;100.00;99107.72;5019059;28;20048;-64
2021/11/07 00:12:17;;;;;;;2.85;2.00;;;;;;;8.21;100.00;99127.94;5023393;28;20631;-62
2021/11/07 00:15:01;;;;;;;1.65;1.23;;;;;;;8.18;100.00;99135.88;4991383;28;20052;-63
2021/11/07 00:17:50;;;;;;;3.17;1.30;;;;;;;8.14;100.00;99132.44;5003104;28;20057;-63
2021/11/07 00:20:38;;;;;;;1.40;1.02;;;;;;;8.13;100.00;99140.41;5016130;28;20406;-64
2021/11/07 00:26:32;;;;;;;0.80;0.77;;;;;;;8.08;100.00;99139.63;4996002;28;20045;-64
2021/11/07 00:29:22;;;;;;;2.45;0.80;;;;;;;8.06;100.00;99138.78;4995732;28;20173;-65
2021/11/07 00:35:30;;;;;;;0.47;0.30;;;;;;;8.08;100.00;99155.47;5003110;28;20145;-64
2021/11/07 00:38:06;;;;;;;0.47;0.30;;;;;;;7.98;100.00;99144.22;5016650;28;20056;-64
2021/11/07 00:41:01;;;;;;;0.93;0.40;;;;;;;7.88;100.00;99169.03;5001596;28;20060;-64
2021/11/07 00:46:57;;;;;;;2.67;0.30;;;;;;;7.64;100.00;99166.84;5021712;28;20488;-61
2021/11/07 00:49:48;;;;;;;0.80;0.30;;;;;;;7.68;100.00;99167.69;4998383;28;20053;-62
2021/11/07 00:52:49;;;;;;;0.88;0.40;;;;;;;7.63;100.00;99162.47;5009275;28;20052;-63
2021/11/07 00:55:46;;;;;;;2.08;0.45;;;;;;;7.54;100.00;99182.88;5017112;28;20067;-61
2021/11/07 00:59:18;;;;;;;1.58;0.50;;;;;;;7.55;100.00;99182.84;5001452;28;20422;-63
2021/11/07 01:01:45;;;;;;;1.10;0.20;;;;;;;7.59;100.00;99181.91;4997036;28;20746;-65
2021/11/07 01:04:30;;;;;;;2.13;0.25;;;;;;;7.58;100.00;99169.63;4990239;28;20064;-61
2021/11/07 01:07:17;;;;;;;1.90;0.38;;;;;;;7.58;100.00;99192.47;4986511;28;20470;-63
2021/11/07 01:10:02;;;;;;;0.73;0.22;;;;;;;7.59;100.00;99202.13;4989615;28;20104;-61
2021/11/07 01:12:47;;;;;;;0.95;0.25;;;;;;;7.60;100.00;99185.41;4987814;28;20152;-60
2021/11/07 01:15:32;;;;;;;0.65;0.25;;;;;;;7.50;100.00;99173.28;4999185;28;20056;-62
2021/11/07 01:18:18;;;;;;;0.43;0.20;;;;;;;7.46;100.00;99196.19;4989673;28;20044;-63
2021/11/07 01:21:03;;;;;;;0.47;0.20;;;;;;;7.45;100.00;99215.56;5006519;28;20125;-61
2021/11/07 01:23:57;;;;;;;;;;;;;;;7.45;100.00;99177.75;4977508;28;20169;-61
2021/11/07 01:26:46;;;;;;;1.25;0.10;;;;;;;7.25;100.00;99227.31;4977282;28;19976;-63
2021/11/07 01:29:30;;;;;;;0.28;0.10;;;;;;;7.21;100.00;99225.63;5000688;28;20048;-60
2021/11/07 01:32:18;;;;;;;0.43;0.22;;;;;;;7.11;100.00;99195.88;5006173;28;20156;-63
2021/11/07 01:35:32;;;;;;;0.55;0.20;;;;;;;7.03;100.00;99218.84;4998255;28;20133;-61
2021/11/07 01:43:47;;;;;;;0.77;0.22;;;;;;;6.87;100.00;99250.72;5007160;28;20048;-62
2021/11/07 01:46:34;;;;;;;0.25;0.20;;;;;;;6.88;100.00;99252.47;4990902;28;20427;-61
2021/11/07 01:49:23;;;;;;;0.55;0.20;;;;;;;6.90;100.00;99240.13;4976419;28;20057;-62
2021/11/07 01:52:10;;;;;;;5.47;0.68;;;;;;;6.86;100.00;99244.59;4959646;28;20065;-62
2021/11/07 01:57:39;;;;;;;0.85;0.13;;;;;;;6.98;100.00;99252.31;4988928;28;20116;-63
2021/11/07 02:00:27;;;;;;;0.57;0.30;;;;;;;7.03;100.00;99249.59;4989513;28;20052;-61
2021/11/07 02:03:12;;;;;;;0.35;0.15;;;;;;;7.03;100.00;99246.97;5001011;28;20088;-62
2021/11/07 02:05:59;;;;;;;1.85;0.20;;;;;;;7.11;100.00;99263.53;5001343;28;20052;-63
2021/11/07 02:08:45;;;;;;;1.00;0.20;;;;;;;7.06;100.00;99284.72;5004432;28;20631;-61
2021/11/07 02:11:30;;;;;;;0.25;0.13;;;;;;;7.12;100.00;99297.78;5000558;28;20166;-61
2021/11/07 02:14:14;;;;;;;0.80;0.20;;;;;;;7.18;100.00;99299.47;4983981;28;20077;-60
2021/11/07 02:16:59;;;;;;;0.30;0.20;;;;;;;7.17;100.00;99280.19;4979404;28;20061;-61
2021/11/07 02:19:46;;;;;;;1.73;0.10;;;;;;;7.16;100.00;99272.28;4978196;28;20087;-63
2021/11/07 02:22:31;;;;;;;0.10;0.10;;;;;;;7.22;100.00;99309.97;4972937;28;20053;-60
2021/11/07 02:25:16;;;;;;;;;;;;;;;7.25;100.00;99304.66;4967805;28;20482;-61
2021/11/07 02:28:03;;;;;;;0.10;0.10;;;;;;;7.12;100.00;99320.66;4989826;28;19929;-62
2021/11/07 02:30:48;;;;;;;0.28;0.20;;;;;;;7.15;100.00;99321.47;4992207;28;20056;-62
2021/11/07 02:33:34;;;;;;;0.32;0.15;;;;;;;7.10;100.00;99319.81;4977246;28;20053;-61
2021/11/07 02:36:19;;;;;;;0.52;0.25;;;;;;;7.07;100.00;99339.16;4988057;28;20077;-63
2021/11/07 02:39:04;;;;;;;0.73;0.20;;;;;;;7.16;100.00;99327.66;4990480;28;20521;-61
2021/11/07 02:41:49;;;;;;;1.65;0.20;;;;;;;7.22;100.00;99325.78;4999027;28;20064;-60
2021/11/07 02:44:37;;;;;;;0.30;0.10;;;;;;;7.16;100.00;99333.78;5003112;28;20061;-63
2021/11/07 02:47:22;;;;;;;0.30;0.10;;;;;;;7.21;100.00;99339.00;4983122;28;20130;-60
2021/11/07 02:50:08;;;;;;;1.67;0.20;;;;;;;7.26;100.00;99364.41;4986636;28;20116;-61
2021/11/07 02:52:53;;;;;;;0.30;0.20;;;;;;;7.13;100.00;99340.84;4994338;28;20560;-62
2021/11/07 02:55:37;;;;;;;0.90;0.20;;;;;;;7.10;100.00;99365.50;4991505;28;20057;-61
2021/11/07 02:58:22;;;;;;;0.30;0.25;;;;;;;6.99;100.00;99367.38;4987023;28;20528;-62
2021/11/07 03:01:06;;;;;;;0.82;0.20;;;;;;;6.94;100.00;99384.16;4975318;28;20115;-66
2021/11/07 03:04:00;;;;;;;0.88;0.40;;;;;;;6.95;100.00;99376.22;4987566;28;20088;-62
2021/11/07 03:06:45;;;;;;;0.47;0.20;;;;;;;6.91;100.00;99377.16;4968776;28;20526;-62
2021/11/07 03:09:32;;;;;;;0.20;0.15;;;;;;;6.91;100.00;99368.34;4966857;28;20518;-63
2021/11/07 03:12:18;;;;;;;0.60;0.30;;;;;;;6.98;100.00;99399.91;4983836;28;20152;-62
2021/11/07 03:15:06;;;;;;;1.83;0.15;;;;;;;7.05;100.00;99406.88;4993719;28;20061;-64
2021/11/07 03:17:53;;;;;;;0.40;0.20;;;;;;;7.12;100.00;99416.41;4998775;28;20125;-61
2021/11/07 03:20:40;;;;;;;0.75;0.10;;;;;;;7.03;100.00;99391.94;5006525;28;20097;-60
2021/11/07 03:23:25;;;;;;;0.40;0.20;;;;;;;6.99;100.00;99399.00;4997254;28;20069;-63
2021/11/07 03:26:13;;;;;;;0.82;0.10;;;;;;;6.93;100.00;99409.63;5000111;28;20517;-62
2021/11/07 03:29:02;;;;;;;0.95;0.17;;;;;;;6.96;100.00;99435.94;4999737;28;20418;-66
2021/11/07 03:32:01;;;;;;;0.98;0.13;;;;;;;6.93;100.00;99428.06;4986462;28;20076;-60
2021/11/07 03:34:58;;;;;;;2.47;0.65;;;;;;;6.88;100.00;99432.50;4978923;28;20636;-62
2021/11/07 03:37:55;;;;;;;2.17;0.57;;;;;;;6.89;100.00;99443.94;4979095;28;20156;-63
2021/11/07 03:40:39;;;;;;;0.40;0.25;;;;;;;6.86;100.00;99443.97;5004628;28;20064;-62
2021/11/07 03:43:28;;;;;;;0.35;0.17;;;;;;;6.89;100.00;99431.63;5005139;28;20567;-61
2021/11/07 03:46:17;;;;;;;0.40;0.30;;;;;;;6.92;100.00;99450.03;4985777;28;20087;-60
2021/11/07 03:49:03;;;;;;;0.13;0.10;;;;;;;6.92;100.00;99459.72;4995877;28;20123;-59
2021/11/07 03:51:49;;;;;;;1.10;0.17;;;;;;;6.93;100.00;99472.00;4992053;28;20048;-60
2021/11/07 03:54:34;;;;;;;0.38;0.20;;;;;;;6.98;100.00;99481.63;4988804;28;20054;-66
2021/11/07 03:57:19;;;;;;;0.60;0.10;;;;;;;6.90;100.00;99437.78;4988159;28;20383;-61
2021/11/07 04:00:09;;;;;;;0.82;0.17;;;;;;;6.92;100.00;99465.84;4998821;28;20580;-60
2021/11/07 04:02:54;;;;;;;0.50;0.20;;;;;;;6.93;100.00;99464.97;4989370;28;20431;-61
2021/11/07 04:05:39;;;;;;;0.73;0.20;;;;;;;6.92;100.00;99494.84;5004409;28;20048;-61
2021/11/07 04:08:24;;;;;;;1.02;0.20;;;;;;;6.99;100.00;99493.91;4978404;28;20065;-62
2021/11/07 04:11:09;;;;;;;0.40;0.20;;;;;;;6.98;100.00;99510.63;4998305;28;20065;-61
2021/11/07 04:13:53;;;;;;;0.10;0.10;;;;;;;6.91;100.00;99474.66;4990693;28;20343;-66
2021/11/07 04:16:40;;;;;;;0.55;0.20;;;;;;;6.91;100.00;99510.66;4982415;28;20307;-61
2021/11/07 04:19:25;;;;;;;2.30;0.20;;;;;;;6.90;100.00;99507.19;4976542;28;20108;-60
2021/11/07 04:22:12;;;;;;;0.82;0.10;;;;;;;6.88;100.00;99522.13;5015734;28;20131;-60
2021/11/07 04:24:58;;;;;;;0.75;0.25;;;;;;;6.83;100.00;99521.28;4985240;28;20049;-60
2021/11/07 04:27:45;;;;;;;0.10;0.10;;;;;;;6.78;100.00;99532.75;4985326;28;20490;-64
2021/11/07 04:30:30;;;;;;;0.68;0.10;;;;;;;6.79;100.00;99545.03;4996469;28;20104;-63
2021/11/07 04:33:15;;;;;;;0.35;0.15;;;;;;;6.86;100.00;99546.75;4979621;28;20100;-65
2021/11/07 04:36:01;;;;;;;0.45;0.10;;;;;;;6.87;100.00;99551.13;4991000;28;20618;-61
2021/11/07 04:38:46;;;;;;;1.15;0.30;;;;;;;6.82;100.00;99560.81;4988376;28;20824;-62
2021/11/07 04:41:30;;;;;;;0.45;0.20;;;;;;;6.76;100.00;99564.38;4991671;28;20073;-62
2021/11/07 04:44:15;;;;;;;0.95;0.20;;;;;;;6.87;100.00;99566.94;4995955;28;20053;-61
2021/11/07 04:47:01;;;;;;;0.47;0.25;;;;;;;6.85;100.00;99571.34;4970458;28;20068;-65
2021/11/07 04:49:45;;;;;;;0.40;0.40;;;;;;;6.89;100.00;99584.47;5001205;28;20052;-62
2021/11/07 04:52:30;;;;;;;2.42;0.20;;;;;;;6.76;100.00;99574.06;5004774;28;20535;-63
2021/11/07 04:55:16;;;;;;;0.40;0.20;;;;;;;6.76;100.00;99592.50;4991737;28;20060;-62
2021/11/07 04:58:01;;;;;;;0.55;0.20;;;;;;;6.69;100.00;99586.38;4990175;28;20258;-63
2021/11/07 05:00:46;;;;;;;0.22;0.22;;;;;;;6.66;100.00;99602.25;4988122;28;20112;-62
2021/11/07 05:03:32;;;;;;;1.90;0.40;;;;;;;6.63;100.00;99615.44;4982679;28;21583;-64
2021/11/07 05:06:18;;;;;;;3.90;0.30;;;;;;;6.68;100.00;99621.53;4995422;28;20048;-67
2021/11/07 05:09:04;;;;;;;0.30;0.20;;;;;;;6.64;100.00;99611.03;4989737;28;20099;-62
2021/11/07 05:11:49;;;;;;;1.45;0.20;;;;;;;6.65;100.00;99613.63;4986109;28;20525;-67
2021/11/07 05:14:34;;;;;;;1.10;0.30;;;;;;;6.66;100.00;99604.88;4993779;28;20184;-60
2021/11/07 05:17:19;;;;;;;1.95;0.40;;;;;;;6.61;100.00;99625.09;5004522;28;20296;-62
2021/11/07 05:20:04;;;;;;;0.95;0.22;;;;;;;6.61;100.00;99634.78;5016043;28;20198;-61
2021/11/07 05:22:49;;;;;;;1.40;0.30;;;;;;;6.64;100.00;99643.50;5003357;28;20081;-58
2021/11/07 05:25:34;;;;;;;0.80;0.30;;;;;;;6.77;100.00;99636.41;5003782;28;20825;-60
2021/11/07 05:28:18;;;;;;;3.22;0.30;;;;;;;6.75;100.00;99638.16;4990324;28;20053;-63
2021/11/07 05:31:03;;;;;;;0.95;0.20;;;;;;;6.60;100.00;99636.50;4993898;28;20060;-64
2021/11/07 05:33:47;;;;;;;0.95;0.20;;;;;;;6.58;100.00;99630.41;5001340;28;20108;-62
2021/11/07 05:36:33;;;;;;;1.23;0.35;;;;;;;6.64;100.00;99640.03;5009692;28;20056;-63
2021/11/07 05:39:21;;;;;;;2.55;0.30;;;;;;;6.71;100.00;99639.06;4985788;28;20065;-65
2021/11/07 05:42:06;;;;;;;0.82;0.20;;;;;;;6.66;100.00;99649.66;5004251;28;20080;-63
2021/11/07 05:44:51;;;;;;;0.70;0.20;;;;;;;6.75;100.00;99638.16;5001357;28;20521;-63
2021/11/07 05:47:36;;;;;;;2.70;0.47;;;;;;;6.70;100.00;99653.13;5005051;28;20431;-66
2021/11/07 05:50:23;;;;;;;1.33;0.30;;;;;;;6.66;100.00;99654.94;4995984;28;20148;-61
2021/11/07 05:53:08;;;;;;;1.90;0.32;;;;;;;6.70;100.00;99655.78;4995266;28;20067;-62
2021/11/07 05:55:53;;;;;;;1.65;0.40;;;;;;;6.62;100.00;99660.22;4992443;28;20096;-61
2021/11/07 05:58:39;;;;;;;0.47;0.13;;;;;;;6.64;100.00;99658.47;4997406;28;20069;-67
2021/11/07 06:01:24;;;;;;;2.05;0.40;;;;;;;6.65;100.00;99676.88;4975944;28;20071;-61
2021/11/07 06:04:09;;;;;;;1.00;0.30;;;;;;;6.62;100.00;99678.66;4997491;28;20115;-62
2021/11/07 06:06:53;;;;;;;5.10;0.30;;;;;;;6.64;100.00;99672.50;5006513;28;20133;-61
2021/11/07 06:09:37;;;;;;;2.75;0.20;;;;;;;6.66;100.00;99691.81;4993778;28;20529;-60
2021/11/07 06:12:23;;;;;;;1.50;0.40;;;;;;;6.70;100.00;99690.03;4999106;28;20095;-60
2021/11/07 06:15:09;;;;;;;2.25;0.45;;;;;;;6.89;100.00;99700.44;5004235;28;20057;-62
2021/11/07 06:17:53;;;;;;;2.88;0.60;;;;;;;7.00;100.00;99693.31;4984722;28;20061;-69
2021/11/07 06:20:38;;;;;;;2.42;0.63;;;;;;;6.98;100.00;99696.88;4991949;28;20104;-64
2021/11/07 06:23:25;;;;;;;1.08;0.40;;;;;;;7.09;100.00;99701.19;4983982;28;20049;-62
2021/11/07 06:26:09;;;;;;;1.98;0.50;;;;;;;7.01;100.00;99696.84;4997801;28;20049;-63
2021/11/07 06:28:58;;;;;;;2.40;0.63;;;;;;;7.06;100.00;99687.13;4953676;28;20116;-62
2021/11/07 06:31:46;;;;;;;2.05;0.90;;;;;;;7.05;100.00;99709.13;4968861;28;20120;-64
2021/11/07 06:34:31;;;;;;;1.85;0.95;;;;;;;7.19;100.00;99725.69;5008721;28;20091;-62
2021/11/07 06:37:16;;;;;;;1.40;0.98;;;;;;;7.18;100.00;99730.13;4988876;28;20060;-62
2021/11/07 06:40:01;;;;;;;1.83;0.90;;;;;;;7.23;100.00;99715.13;4982367;28;20052;-64
2021/11/07 06:42:49;;;;;;;1.65;0.90;;;;;;;7.23;100.00;99730.94;4984329;28;20227;-64
2021/11/07 06:45:35;;;;;;;1.60;0.70;;;;;;;7.08;100.00;99740.75;4986107;28;20073;-66
2021/11/07 06:48:20;;;;;;;2.25;0.80;;;;;;;7.17;100.00;99732.75;4999935;28;20095;-62
2021/11/07 06:51:05;;;;;;;2.47;0.50;;;;;;;7.04;100.00;99731.09;4973933;28;20053;-64
2021/11/07 06:53:51;;;;;;;1.27;0.60;;;;;;;6.95;100.00;99733.78;4992189;28;20056;-65
2021/11/07 06:56:35;;;;;;;3.03;0.50;;;;;;;6.98;100.00;99732.03;4983520;28;20105;-63
2021/11/07 06:59:20;;;;;;;0.88;0.20;;;;;;;7.10;100.00;99746.88;4981016;28;20057;-62
2021/11/07 07:02:05;;;;;;;1.27;0.40;;;;;;;7.13;100.00;99744.22;4976331;28;20050;-64
2021/11/07 07:04:51;;;;;;;0.55;0.40;;;;;;;7.15;100.00;99745.06;4997491;28;20547;-63
2021/11/07 07:07:38;;;;;;;1.10;0.47;;;;;;;7.10;100.00;99742.47;4997748;28;20056;-59
2021/11/07 07:10:31;;;;;;;1.33;0.55;;;;;;;7.14;100.00;99752.13;4975146;28;20049;-60
2021/11/07 07:13:36;;;;;;;3.63;0.80;;;;;;;7.11;100.00;99746.88;4992143;28;20659;-59
2021/11/07 07:28:20;;;;;;;2.25;0.70;;;;;;;7.35;100.00;99762.50;5006370;28;20053;-62
2021/11/07 07:34:10;;;;;;;2.83;1.30;;;;;;;7.66;100.00;99771.94;4994967;28;20064;-66
2021/11/07 07:36:55;;;;;;;3.10;0.73;;;;;;;7.79;100.00;99770.09;4995671;28;20099;-61
2021/11/07 07:39:40;;;;;;;1.20;0.70;;;;;;;7.98;100.00;99756.69;4971349;28;20068;-61
2021/11/07 07:42:25;;;;;;;2.05;0.63;;;;;;;7.90;100.00;99771.72;4996740;28;20568;-62
2021/11/07 07:45:10;;;;;;;4.03;1.00;;;;;;;9.24;100.00;99786.88;4959582;28;20049;-63
2021/11/07 07:47:55;;;;;;;1.95;0.80;;;;;;;9.21;100.00;99772.78;4996059;28;20116;-62
2021/11/07 07:50:41;;;;;;;1.48;0.63;;;;;;;8.72;100.00;99774.38;5009667;28;20605;-65
2021/11/07 07:53:26;;;;;;;4.15;0.82;;;;;;;8.49;100.00;99768.47;4992829;28;20426;-62
2021/11/07 07:56:13;;;;;;;5.88;0.60;;;;;;;8.89;100.00;99777.66;4992274;28;20524;-64
2021/11/07 07:58:57;;;;;;;2.15;0.73;;;;;;;9.40;100.00;99790.16;4992070;28;20069;-66
2021/11/07 08:01:42;;;;;;;3.60;1.42;;;;;;;8.98;100.00;99789.00;4997291;28;20049;-64
2021/11/07 08:04:26;;;;;;;2.28;1.00;;;;;;;8.51;100.00;99775.50;5005657;28;20508;-66
2021/11/07 08:07:11;;;;;;;1.50;0.60;;;;;;;8.25;100.00;99780.22;5004260;28;20484;-63
2021/11/07 08:09:56;;;;;;;3.00;1.00;;;;;;;8.35;100.00;99771.28;4997428;28;20056;-63
2021/11/07 08:12:41;;;;;;;3.65;0.80;;;;;;;8.27;100.00;99785.47;4974050;28;20049;-62
2021/11/07 08:15:26;;;;;;;1.20;0.60;;;;;;;8.18;100.00;99783.75;4982738;28;20144;-65
2021/11/07 08:18:11;;;;;;;2.47;1.38;;;;;;;8.24;100.00;99791.63;5006412;28;20057;-64
2021/11/07 08:20:56;;;;;;;5.53;1.77;;;;;;;8.15;100.00;99785.56;5004085;28;20061;-65
2021/11/07 08:23:40;;;;;;;3.78;1.63;;;;;;;8.28;100.00;99796.00;5005826;28;20084;-65
2021/11/07 08:26:25;;;;;;;2.72;0.68;;;;;;;8.32;100.00;99795.06;4985927;28;20054;-65
2021/11/07 08:29:13;;;;;;;3.08;0.85;;;;;;;8.84;100.00;99796.25;4988056;28;20092;-63
2021/11/07 08:31:59;;;;;;;3.25;1.13;;;;;;;9.05;100.00;99798.59;4975417;28;20548;-63
2021/11/07 08:34:45;;;;;;;1.58;0.55;;;;;;;9.22;100.00;99816.91;4990344;28;20053;-66
2021/11/07 08:37:44;;;;;;;2.53;0.70;;;;;;;10.39;100.00;99799.06;4995578;28;20466;-64
2021/11/07 08:40:37;;;;;;;1.42;0.80;;;;;;;11.87;100.00;99799.38;4999197;28;20053;-64
2021/11/07 09:10:22;;;;;;;2.20;0.77;;;;;;;10.21;100.00;99794.09;4997499;28;20115;-65
2021/11/07 09:13:09;;;;;;;2.30;0.80;;;;;;;10.53;100.00;99798.81;5005222;28;20049;-64
2021/11/07 09:15:54;;;;;;;1.25;0.40;;;;;;;10.66;100.00;99797.66;5001738;28;20462;-65
2021/11/07 09:18:39;;;;;;;2.42;0.77;;;;;;;10.35;100.00;99793.84;5021050;28;20122;-67
2021/11/07 09:21:28;;;;;;;1.77;0.70;;;;;;;10.90;100.00;99791.84;5000395;28;20083;-64
2021/11/07 09:24:25;;;;;;;2.78;0.70;;;;;;;10.60;100.00;99797.81;4988419;28;20053;-64
2021/11/07 09:27:38;;;;;;;0.93;0.60;;;;;;;10.91;100.00;99799.78;5015436;28;20064;-66
2021/11/07 09:30:37;;;;;;;1.23;0.60;;;;;;;10.32;100.00;99799.22;5008827;28;20072;-65
2021/11/07 09:34:13;;;;;;;1.73;0.70;;;;;;;11.71;100.00;99803.31;5003992;28;20102;-65
2021/11/07 09:36:38;;;;;;;4.10;1.20;;;;;;;13.82;93.12;99788.38;5016163;28;20477;-62
2021/11/07 09:39:35;;;;;;;7.03;0.93;;;;;;;14.76;82.51;99778.88;4990115;28;20060;-64
2021/11/07 09:45:17;;;;;;;2.53;1.02;;;;;;;16.81;65.78;99798.94;5014884;28;20476;-65
2021/11/07 09:48:30;;;;;;;2.10;0.85;;;;;;;16.54;63.12;99800.13;5004616;28;20047;-63
2021/11/07 09:51:16;;;;;;;2.60;1.00;;;;;;;16.42;63.02;99787.28;5022386;28;20045;-62
2021/11/07 09:54:03;;;;;;;2.63;0.93;;;;;;;15.29;69.25;99783.06;5003074;28;20107;-63
2021/11/07 09:56:54;;;;;;;2.97;0.90;;;;;;;16.08;67.28;99778.94;5008266;28;20510;-62
2021/11/07 09:59:39;;;;;;;1.67;0.90;;;;;;;16.69;60.45;99780.72;5000568;28;20043;-70
2021/11/07 10:02:26;;;;;;;3.78;1.33;;;;;;;17.19;54.37;99792.72;4977828;28;20549;-70
2021/11/07 10:05:15;;;;;;;3.05;1.55;;;;;;;17.93;49.10;99792.69;5017996;28;20047;-65
2021/11/07 10:08:03;;;;;;;2.67;1.25;;;;;;;17.03;50.51;99799.72;4978306;28;20056;-67
2021/11/07 10:11:03;;;;;;;4.85;1.45;;;;;;;17.67;52.54;99789.53;5019494;28;20056;-74
2021/11/07 10:14:10;;;;;;;1.88;0.90;;;;;;;17.65;47.78;99796.81;5006629;28;20111;-64
2021/11/07 10:16:57;;;;;;;3.00;1.00;;;;;;;16.70;48.69;99789.66;5006739;28;20120;-66
2021/11/07 10:19:43;;;;;;;1.50;1.10;;;;;;;16.03;55.69;99797.00;5014360;28;20072;-66
2021/11/07 10:22:31;;;;;;;1.92;1.15;;;;;;;16.17;59.36;99802.63;5006886;28;20155;-65
2021/11/07 10:25:20;;;;;;;3.42;1.30;;;;;;;16.93;55.15;99792.16;4992682;28;20534;-65
2021/11/07 10:28:15;;;;;;;3.70;1.10;;;;;;;17.33;52.52;99795.59;4996892;28;20745;-69
2021/11/07 10:31:28;;;;;;;5.18;1.38;;;;;;;17.08;52.11;99794.13;5021628;28;20096;-65
2021/11/07 10:37:32;;;;;;;3.25;1.27;;;;;;;16.20;53.69;99796.28;5003401;28;20398;-66
2021/11/07 10:40:45;;;;;;;3.47;1.20;;;;;;;15.94;59.39;99788.47;4986575;28;20087;-64
2021/11/07 10:43:43;;;;;;;2.90;1.20;;;;;;;17.39;53.92;99797.13;4990851;28;20048;-65
2021/11/07 10:52:57;;;;;;;5.70;1.10;;;;;;;18.02;45.68;99804.78;4994217;28;20112;-73
2021/11/07 10:55:49;;;;;;;3.80;1.10;;;;;;;18.95;42.82;99793.69;4993900;28;20056;-66
2021/11/07 10:58:41;;;;;;;3.60;1.00;;;;;;;18.81;41.80;99794.44;5017163;28;20076;-62
2021/11/07 11:01:26;;;;;;;4.55;1.23;;;;;;;18.75;42.08;99794.72;5006280;28;20564;-67
2021/11/07 11:04:12;;;;;;;4.25;1.25;;;;;;;20.23;38.63;99798.97;5022530;28;20060;-65
2021/11/07 11:07:05;;;;;;;2.42;1.15;;;;;;;19.17;39.25;99788.88;5000895;28;20100;-65
2021/11/07 11:10:25;;;;;;;3.30;1.13;;;;;;;19.51;40.91;99787.00;4983250;28;20056;-67
2021/11/07 11:22:40;;;;;;;1.67;0.95;;;;;;;17.93;41.78;99760.50;4957539;28;20057;-66
2021/11/07 11:31:28;;;;;;;2.57;1.17;;;;;;;18.23;41.43;99751.84;4943587;28;20091;-67
2021/11/07 11:34:19;;;;;;;3.75;1.30;;;;;;;18.81;41.17;99759.50;4937520;28;20345;-67
2021/11/07 11:37:25;;;;;;;3.88;0.90;;;;;;;18.25;40.68;99758.00;4941270;28;20073;-69
2021/11/07 11:40:20;;;;;;;1.90;0.90;;;;;;;17.75;43.66;99755.16;4931440;28;20589;-68
2021/11/07 11:46:02;;;;;;;4.68;1.00;;;;;;;16.30;46.07;99753.00;4933053;28;20054;-67
2021/11/07 11:49:17;;;;;;;4.40;1.80;;;;;;;16.45;50.86;99751.47;4951326;28;20447;-70
2021/11/07 11:58:27;;;;;;;4.28;1.08;;;;;;;14.21;62.75;99749.75;5006920;28;20060;-66
2021/11/07 12:01:19;;;;;;;3.42;1.30;;;;;;;14.16;66.17;99743.66;5015989;28;20048;-68
2021/11/07 12:04:36;;;;;;;2.75;1.20;;;;;;;13.47;70.84;99743.34;5007035;28;20477;-65
2021/11/07 12:07:22;;;;;;;4.85;1.20;;;;;;;13.06;75.47;99741.13;5005143;28;20072;-62
2021/11/07 12:10:35;;;;;;;3.90;1.48;;;;;;;13.27;77.62;99743.09;4988086;28;20131;-59
2021/11/07 12:16:43;;;;;;;4.03;1.40;;;;;;;13.09;79.27;99741.00;5023505;28;20536;-63
2021/11/07 12:19:43;;;;;;;4.53;1.52;;;;;;;12.90;80.27;99732.66;4986056;28;20049;-67
2021/11/07 12:22:33;;;;;;;3.90;1.30;;;;;;;12.89;81.27;99733.59;4978913;28;20129;-69
2021/11/07 12:25:27;;;;;;;5.20;1.70;;;;;;;12.87;81.70;99729.25;5010095;28;20084;-67
2021/11/07 12:28:13;;;;;;;5.45;1.73;;;;;;;12.99;81.86;99731.56;4989625;28;20073;-67
2021/11/07 12:31:07;;;;;;;5.22;2.30;;;;;;;12.37;85.82;99719.16;4991717;28;20108;-66
2021/11/07 12:34:04;;;;;;;4.78;1.88;;;;;;;12.26;90.01;99708.84;5022081;28;20052;-66
2021/11/07 12:43:10;;;;;;;5.13;1.40;;;;;;;11.79;96.39;99711.03;4980566;28;20107;-67
2021/11/07 12:46:00;;;;;;;6.13;1.92;;;;;;;11.84;96.03;99720.63;4990861;28;20050;-66
2021/11/07 12:48:52;;;;;;;3.67;1.90;;;;;;;11.52;98.07;99717.00;4983393;28;20116;-63
2021/11/07 12:51:47;;;;;;;4.93;1.92;;;;;;;11.27;100.00;99718.50;4988552;28;20057;-68
2021/11/07 12:54:42;;;;;;;2.50;1.35;;;;;;;10.82;100.00;99711.56;5002780;28;20068;-65
2021/11/07 12:57:27;;;;;;;2.80;1.23;;;;;;;10.86;100.00;99719.44;4989551;28;20621;-66
2021/11/07 13:00:12;;;;;;;2.88;0.90;;;;;;;10.45;100.00;99700.91;4989785;28;20864;-67
2021/11/07 13:03:04;;;;;;;;;;;;;;;10.39;100.00;99706.31;5022748;28;20049;-64
2021/11/07 13:05:54;;;;;;;4.43;1.17;;;;;;;10.08;100.00;99691.06;5002382;28;20026;-66
2021/11/07 13:08:43;;;;;;;1.77;1.10;;;;;;;10.25;100.00;99710.16;5008996;28;20490;-66
2021/11/07 13:11:39;;;;;;;3.13;1.38;;;;;;;10.21;100.00;99703.16;4999396;28;20096;-66
2021/11/07 13:14:46;;;;;;;1.85;0.90;;;;;;;9.78;100.00;99702.16;5001409;28;20413;-67
2021/11/07 13:17:39;;;;;;;2.17;1.17;;;;;;;9.80;100.00;99697.75;5009920;28;20227;-64
2021/11/07 13:32:34;;;;;;;4.43;1.80;;;;;;;9.31;100.00;99687.13;4994640;28;20049;-69
2021/11/07 13:35:22;;;;;;;7.18;2.85;;;;;;;9.12;100.00;99675.97;4974253;28;20478;-64
2021/11/07 13:38:13;;;;;;;4.18;1.77;;;;;;;8.95;100.00;99683.25;5004736;28;20095;-67
2021/11/07 13:40:58;;;;;;;5.45;2.03;;;;;;;8.89;100.00;99682.47;4986821;28;20168;-66
2021/11/07 13:43:48;;;;;;;5.50;1.60;;;;;;;8.98;100.00;99680.56;4990792;28;20045;-67
2021/11/07 13:46:35;;;;;;;4.25;1.50;;;;;;;8.88;100.00;99671.03;4976581;28;20072;-65
2021/11/07 13:49:21;;;;;;;3.03;1.27;;;;;;;8.90;100.00;99679.81;4998265;28;20061;-65
2021/11/07 13:52:08;;;;;;;8.95;1.55;;;;;;;8.68;100.00;99673.09;5007246;28;20056;-65
2021/11/07 13:54:52;;;;;;;3.88;1.30;;;;;;;8.66;100.00;99672.22;5015048;28;20044;-64
2021/11/07 13:57:37;;;;;;;4.20;1.20;;;;;;;8.72;100.00;99664.22;4987773;28;20485;-66
2021/11/07 14:00:26;;;;;;;2.97;1.38;;;;;;;8.71;100.00;99672.19;4977340;28;20459;-63
2021/11/07 14:03:16;;;;;;;6.43;1.33;;;;;;;8.57;100.00;99669.72;4973238;28;20104;-65
2021/11/07 14:06:11;;;;;;;2.75;1.33;;;;;;;8.38;100.00;99659.41;4998238;28;20048;-66
2021/11/07 14:09:02;;;;;;;4.55;1.60;;;;;;;8.31;100.00;99666.53;4993591;28;20068;-65
2021/11/07 14:11:50;;;;;;;5.72;1.75;;;;;;;8.54;100.00;99663.59;4992339;28;20580;-67
2021/11/07 14:14:37;;;;;;;3.38;1.33;;;;;;;8.42;100.00;99662.00;4972615;28;20108;-64
2021/11/07 14:17:25;;;;;;;4.50;1.90;;;;;;;8.53;100.00;99656.56;4982695;28;20606;-67
2021/11/07 14:20:13;;;;;;;2.75;1.42;;;;;;;8.59;100.00;99667.06;4999913;28;20080;-65
2021/11/07 14:23:09;;;;;;;3.58;1.20;;;;;;;8.47;100.00;99661.94;5007036;28;20060;-65
2021/11/07 14:26:17;;;;;;;2.65;1.60;;;;;;;8.41;100.00;99652.34;4990031;28;20052;-65
2021/11/07 14:32:16;;;;;;;7.82;1.67;;;;;;;8.48;100.00;99655.75;4989315;28;20839;-64
2021/11/07 14:38:01;;;;;;;5.55;1.88;;;;;;;8.14;100.00;99657.03;4987327;28;20048;-64
2021/11/07 14:41:09;;;;;;;3.70;1.77;;;;;;;8.23;100.00;99635.84;4986188;28;20119;-72
2021/11/07 14:46:52;;;;;;;4.38;1.52;;;;;;;8.19;100.00;99650.81;5019167;28;20130;-72
2021/11/07 14:49:53;;;;;;;2.90;1.30;;;;;;;8.10;100.00;99655.31;5000230;28;20433;-63
2021/11/07 14:52:55;;;;;;;3.10;1.40;;;;;;;8.01;100.00;99652.81;4977943;28;20053;-64
2021/11/07 14:56:03;;;;;;;4.18;1.30;;;;;;;8.05;100.00;99651.88;4984092;28;20057;-63
2021/11/07 15:02:05;;;;;;;5.85;1.80;;;;;;;7.86;100.00;99643.28;5010787;28;20115;-64
2021/11/07 15:05:15;;;;;;;3.78;1.88;;;;;;;7.69;100.00;99645.25;4970817;28;20065;-64
2021/11/07 15:08:36;;;;;;;5.80;2.20;;;;;;;7.73;100.00;99649.63;5003892;28;20081;-64
2021/11/07 15:11:53;;;;;;;11.68;2.28;;;;;;;7.69;100.00;99641.72;4988550;28;20053;-66
2021/11/07 15:15:04;;;;;;;9.65;2.65;;;;;;;7.55;100.00;99626.03;4976412;28;20760;-67
2021/11/07 15:20:56;;;;;;;6.97;2.42;;;;;;;7.65;100.00;99626.81;4997306;28;20077;-68
2021/11/07 15:23:44;;;;;;;7.72;3.35;;;;;;;7.50;100.00;99619.06;4981570;28;20122;-63
2021/11/07 15:26:41;;;;;;;6.75;3.70;;;;;;;7.46;100.00;99615.59;4992817;28;20103;-72
2021/11/07 15:29:33;;;;;;;6.15;3.47;;;;;;;7.42;100.00;99612.97;4984885;28;20064;-64
2021/11/07 15:32:17;;;;;;;7.55;3.67;;;;;;;7.41;100.00;99598.94;4996739;28;20069;-63
2021/11/07 15:35:21;;;;;;;3.85;2.65;;;;;;;7.44;100.00;99601.53;4990324;28;20057;-65
2021/11/07 15:38:17;;;;;;;7.97;3.72;;;;;;;7.28;100.00;99599.09;4973817;28;20053;-64
2021/11/07 15:41:07;;;;;;;7.57;2.75;;;;;;;7.34;100.00;99597.25;4990247;28;20117;-66